sensor_id;sensor_type;location;lat;lon;timestamp;pressure;altitude;pressure_sealevel;temperature;humidity
43503;BME280;29098;48.184;16.298;2023-06-14T00:01:34;99033.19;;;12.52;88.01
43503;BME280;29098;48.184;16.298;2023-06-14T00:04:01;99040.34;;;12.78;85.75
43503;BME280;29098;48.184;16.298;2023-06-14T00:06:28;99026.91;;;12.66;87.04
43503;BME280;29098;48.184;16.298;2023-06-14T00:08:53;99029.72;;;12.38;87.99
43503;BME280;29098;48.184;16.298;2023-06-14T00:11:19;99068.38;;;12.39;88.74
43503;BME280;29098;48.184;16.298;2023-06-14T00:13:45;99038.88;;;12.42;89.41
43503;BME280;29098;48.184;16.298;2023-06-14T00:16:10;99041.72;;;12.47;89.13
43503;BME280;29098;48.184;16.298;2023-06-14T00:18:36;99042.16;;;12.44;89.49
43503;BME280;29098;48.184;16.298;2023-06-14T00:21:04;99032.38;;;12.51;88.99
43503;BME280;29098;48.184;16.298;2023-06-14T00:23:29;99035.00;;;12.51;88.45
43503;BME280;29098;48.184;16.298;2023-06-14T00:25:55;99007.91;;;12.09;90.24
43503;BME280;29098;48.184;16.298;2023-06-14T00:28:20;99020.75;;;12.25;89.89
43503;BME280;29098;48.184;16.298;2023-06-14T00:30:46;99018.72;;;12.21;89.67
43503;BME280;29098;48.184;16.298;2023-06-14T00:33:12;98993.88;;;12.08;90.29
43503;BME280;29098;48.184;16.298;2023-06-14T00:35:37;98993.09;;;12.08;89.74
43503;BME280;29098;48.184;16.298;2023-06-14T00:38:03;99037.44;;;12.32;89.93
43503;BME280;29098;48.184;16.298;2023-06-14T00:40:28;99049.03;;;12.31;90.01
43503;BME280;29098;48.184;16.298;2023-06-14T00:42:54;98991.84;;;12.03;90.91
43503;BME280;29098;48.184;16.298;2023-06-14T00:45:19;99000.59;;;12.04;90.02
43503;BME280;29098;48.184;16.298;2023-06-14T00:47:46;99047.13;;;12.12;91.21
43503;BME280;29098;48.184;16.298;2023-06-14T00:50:11;99029.69;;;12.24;90.18
43503;BME280;29098;48.184;16.298;2023-06-14T00:52:37;99048.81;;;12.19;90.25
43503;BME280;29098;48.184;16.298;2023-06-14T00:55:03;99022.19;;;12.35;90.31
43503;BME280;29098;48.184;16.298;2023-06-14T00:57:28;99040.88;;;12.26;90.22
43503;BME280;29098;48.184;16.298;2023-06-14T00:59:55;99010.56;;;12.09;90.88
43503;BME280;29098;48.184;16.298;2023-06-14T01:02:20;99027.63;;;12.13;90.66
43503;BME280;29098;48.184;16.298;2023-06-14T01:04:47;99012.19;;;12.10;91.02
43503;BME280;29098;48.184;16.298;2023-06-14T01:12:24;99031.25;;;11.98;91.83
43503;BME280;29098;48.184;16.298;2023-06-14T01:14:55;99033.66;;;12.00;92.26
43503;BME280;29098;48.184;16.298;2023-06-14T01:17:22;99008.53;;;12.11;90.28
43503;BME280;29098;48.184;16.298;2023-06-14T01:19:50;98990.13;;;11.82;92.09
43503;BME280;29098;48.184;16.298;2023-06-14T01:22:25;99009.88;;;11.93;93.08
43503;BME280;29098;48.184;16.298;2023-06-14T01:24:51;99022.50;;;11.98;92.98
43503;BME280;29098;48.184;16.298;2023-06-14T01:27:23;99018.22;;;11.97;92.08
43503;BME280;29098;48.184;16.298;2023-06-14T01:29:54;99005.13;;;11.68;93.24
43503;BME280;29098;48.184;16.298;2023-06-14T01:32:23;99019.25;;;12.02;92.50
43503;BME280;29098;48.184;16.298;2023-06-14T01:34:50;99009.78;;;12.28;92.05
43503;BME280;29098;48.184;16.298;2023-06-14T01:37:15;99056.97;;;12.25;91.55
43503;BME280;29098;48.184;16.298;2023-06-14T01:39:43;99042.69;;;12.05;92.78
43503;BME280;29098;48.184;16.298;2023-06-14T01:42:10;98987.13;;;11.92;92.16
43503;BME280;29098;48.184;16.298;2023-06-14T01:44:36;99027.59;;;11.99;92.85
43503;BME280;29098;48.184;16.298;2023-06-14T01:47:02;99044.03;;;11.95;93.37
43503;BME280;29098;48.184;16.298;2023-06-14T01:49:28;99037.91;;;11.94;93.40
43503;BME280;29098;48.184;16.298;2023-06-14T01:51:53;98985.09;;;11.87;92.38
43503;BME280;29098;48.184;16.298;2023-06-14T01:54:18;98991.06;;;12.16;92.09
43503;BME280;29098;48.184;16.298;2023-06-14T01:56:44;98983.88;;;11.90;91.89
43503;BME280;29098;48.184;16.298;2023-06-14T01:59:10;99011.16;;;12.11;91.53
43503;BME280;29098;48.184;16.298;2023-06-14T02:01:35;99042.31;;;12.29;92.42
43503;BME280;29098;48.184;16.298;2023-06-14T02:04:01;98991.47;;;12.13;90.94
43503;BME280;29098;48.184;16.298;2023-06-14T02:06:27;99010.75;;;12.07;92.69
43503;BME280;29098;48.184;16.298;2023-06-14T02:08:53;99012.03;;;12.25;91.23
43503;BME280;29098;48.184;16.298;2023-06-14T02:11:18;99034.56;;;12.27;91.82
43503;BME280;29098;48.184;16.298;2023-06-14T02:13:44;98994.63;;;11.88;91.98
43503;BME280;29098;48.184;16.298;2023-06-14T02:16:10;98989.78;;;11.92;91.87
43503;BME280;29098;48.184;16.298;2023-06-14T02:18:36;99006.22;;;11.94;92.30
43503;BME280;29098;48.184;16.298;2023-06-14T02:21:01;99024.97;;;12.13;91.66
43503;BME280;29098;48.184;16.298;2023-06-14T02:23:26;99025.97;;;11.98;91.57
43503;BME280;29098;48.184;16.298;2023-06-14T02:25:52;99026.16;;;11.97;92.06
43503;BME280;29098;48.184;16.298;2023-06-14T02:28:18;99016.56;;;11.89;92.55
43503;BME280;29098;48.184;16.298;2023-06-14T02:30:43;99013.63;;;12.05;92.11
43503;BME280;29098;48.184;16.298;2023-06-14T02:33:09;99038.84;;;12.15;92.20
43503;BME280;29098;48.184;16.298;2023-06-14T02:35:38;99015.63;;;12.03;92.86
43503;BME280;29098;48.184;16.298;2023-06-14T02:38:03;99038.19;;;12.06;92.83
43503;BME280;29098;48.184;16.298;2023-06-14T02:40:28;99046.31;;;12.04;92.73
43503;BME280;29098;48.184;16.298;2023-06-14T02:42:54;99028.50;;;11.78;94.03
43503;BME280;29098;48.184;16.298;2023-06-14T02:45:19;99036.91;;;11.95;94.27
43503;BME280;29098;48.184;16.298;2023-06-14T02:47:46;98993.97;;;11.79;93.13
43503;BME280;29098;48.184;16.298;2023-06-14T02:50:11;99055.25;;;12.03;94.11
43503;BME280;29098;48.184;16.298;2023-06-14T02:52:37;99051.59;;;12.04;93.56
43503;BME280;29098;48.184;16.298;2023-06-14T02:55:03;99031.78;;;11.87;93.79
43503;BME280;29098;48.184;16.298;2023-06-14T02:57:29;99002.09;;;11.78;93.41
43503;BME280;29098;48.184;16.298;2023-06-14T02:59:54;99048.91;;;11.98;94.65
43503;BME280;29098;48.184;16.298;2023-06-14T03:02:20;99045.50;;;12.04;93.13
43503;BME280;29098;48.184;16.298;2023-06-14T03:04:45;99018.59;;;11.93;93.91
43503;BME280;29098;48.184;16.298;2023-06-14T03:07:12;99015.72;;;11.75;94.98
43503;BME280;29098;48.184;16.298;2023-06-14T03:09:38;99023.53;;;12.03;93.76
43503;BME280;29098;48.184;16.298;2023-06-14T03:12:04;99004.78;;;11.85;94.84
43503;BME280;29098;48.184;16.298;2023-06-14T03:14:32;99055.63;;;12.00;94.75
43503;BME280;29098;48.184;16.298;2023-06-14T03:16:57;99040.56;;;11.94;94.57
43503;BME280;29098;48.184;16.298;2023-06-14T03:19:24;99022.19;;;11.72;95.11
43503;BME280;29098;48.184;16.298;2023-06-14T03:21:50;99019.66;;;11.50;95.89
43503;BME280;29098;48.184;16.298;2023-06-14T03:24:15;99079.16;;;11.95;95.44
43503;BME280;29098;48.184;16.298;2023-06-14T03:26:46;99047.47;;;11.95;94.00
43503;BME280;29098;48.184;16.298;2023-06-14T03:29:11;99047.28;;;11.90;95.16
43503;BME280;29098;48.184;16.298;2023-06-14T03:31:58;99067.84;;;12.08;95.54
43503;BME280;29098;48.184;16.298;2023-06-14T03:34:24;99096.13;;;12.08;95.29
43503;BME280;29098;48.184;16.298;2023-06-14T03:36:50;99038.44;;;11.69;95.73
43503;BME280;29098;48.184;16.298;2023-06-14T03:39:15;99072.44;;;11.86;96.76
43503;BME280;29098;48.184;16.298;2023-06-14T03:41:41;99010.84;;;11.78;95.84
43503;BME280;29098;48.184;16.298;2023-06-14T03:44:06;99113.19;;;12.12;96.19
43503;BME280;29098;48.184;16.298;2023-06-14T03:46:31;99031.53;;;11.68;96.58
43503;BME280;29098;48.184;16.298;2023-06-14T03:48:57;99097.16;;;11.78;97.22
43503;BME280;29098;48.184;16.298;2023-06-14T03:51:22;99082.72;;;11.67;97.92
43503;BME280;29098;48.184;16.298;2023-06-14T03:53:48;99075.22;;;11.71;98.10
43503;BME280;29098;48.184;16.298;2023-06-14T03:56:13;99102.50;;;11.85;96.50
43503;BME280;29098;48.184;16.298;2023-06-14T03:58:38;99101.59;;;12.06;95.87
43503;BME280;29098;48.184;16.298;2023-06-14T04:01:04;99118.19;;;12.00;95.94
43503;BME280;29098;48.184;16.298;2023-06-14T04:03:32;99110.69;;;11.97;95.21
43503;BME280;29098;48.184;16.298;2023-06-14T04:05:58;99083.25;;;11.98;95.20
43503;BME280;29098;48.184;16.298;2023-06-14T04:08:25;99065.97;;;11.95;95.34
43503;BME280;29098;48.184;16.298;2023-06-14T04:10:50;99090.56;;;12.02;94.70
43503;BME280;29098;48.184;16.298;2023-06-14T04:13:16;99101.63;;;12.13;95.05
43503;BME280;29098;48.184;16.298;2023-06-14T04:15:42;99099.47;;;11.88;95.33
43503;BME280;29098;48.184;16.298;2023-06-14T04:18:08;99073.09;;;11.95;94.62
43503;BME280;29098;48.184;16.298;2023-06-14T04:20:34;99089.31;;;11.91;95.96
43503;BME280;29098;48.184;16.298;2023-06-14T04:23:16;99108.41;;;11.93;95.74
43503;BME280;29098;48.184;16.298;2023-06-14T04:25:45;99127.06;;;12.14;97.56
43503;BME280;29098;48.184;16.298;2023-06-14T04:28:11;99082.41;;;11.97;97.97
43503;BME280;29098;48.184;16.298;2023-06-14T04:30:37;99102.91;;;12.30;96.77
43503;BME280;29098;48.184;16.298;2023-06-14T04:33:04;99119.13;;;12.21;95.48
43503;BME280;29098;48.184;16.298;2023-06-14T04:35:31;99108.56;;;12.21;94.75
43503;BME280;29098;48.184;16.298;2023-06-14T04:37:57;99091.28;;;12.18;95.16
43503;BME280;29098;48.184;16.298;2023-06-14T04:40:23;99096.59;;;12.25;95.41
43503;BME280;29098;48.184;16.298;2023-06-14T04:42:49;99146.88;;;12.52;94.10
43503;BME280;29098;48.184;16.298;2023-06-14T04:45:16;99124.28;;;12.42;94.72
43503;BME280;29098;48.184;16.298;2023-06-14T04:47:42;99124.13;;;12.57;94.96
43503;BME280;29098;48.184;16.298;2023-06-14T04:50:09;99154.03;;;12.65;94.19
43503;BME280;29098;48.184;16.298;2023-06-14T04:52:36;99158.56;;;12.84;94.74
43503;BME280;29098;48.184;16.298;2023-06-14T04:55:02;99133.91;;;12.64;94.70
43503;BME280;29098;48.184;16.298;2023-06-14T04:57:28;99110.31;;;12.69;94.96
43503;BME280;29098;48.184;16.298;2023-06-14T04:59:54;99119.25;;;12.81;93.77
43503;BME280;29098;48.184;16.298;2023-06-14T05:02:23;99097.69;;;12.71;95.14
43503;BME280;29098;48.184;16.298;2023-06-14T05:04:49;99128.44;;;12.85;94.41
43503;BME280;29098;48.184;16.298;2023-06-14T05:07:14;99127.03;;;13.17;92.63
43503;BME280;29098;48.184;16.298;2023-06-14T05:09:40;99094.69;;;12.94;93.08
43503;BME280;29098;48.184;16.298;2023-06-14T05:12:06;99103.81;;;13.05;92.16
43503;BME280;29098;48.184;16.298;2023-06-14T05:14:33;99111.16;;;13.10;91.43
43503;BME280;29098;48.184;16.298;2023-06-14T05:16:59;99109.09;;;13.32;90.86
43503;BME280;29098;48.184;16.298;2023-06-14T05:19:24;99118.88;;;13.38;90.15
43503;BME280;29098;48.184;16.298;2023-06-14T05:21:50;99144.56;;;13.51;89.13
43503;BME280;29098;48.184;16.298;2023-06-14T05:24:16;99147.19;;;13.65;88.99
43503;BME280;29098;48.184;16.298;2023-06-14T05:26:43;99139.03;;;13.60;87.37
43503;BME280;29098;48.184;16.298;2023-06-14T05:29:08;99141.84;;;13.72;88.55
43503;BME280;29098;48.184;16.298;2023-06-14T05:31:34;99109.47;;;13.69;87.87
43503;BME280;29098;48.184;16.298;2023-06-14T05:33:59;99155.88;;;13.92;87.94
43503;BME280;29098;48.184;16.298;2023-06-14T05:36:25;99161.91;;;14.20;86.64
43503;BME280;29098;48.184;16.298;2023-06-14T05:38:51;99107.75;;;13.95;87.20
43503;BME280;29098;48.184;16.298;2023-06-14T05:41:22;99134.41;;;14.14;83.83
43503;BME280;29098;48.184;16.298;2023-06-14T05:43:48;99137.75;;;14.35;83.81
43503;BME280;29098;48.184;16.298;2023-06-14T05:46:13;99150.38;;;14.39;83.55
43503;BME280;29098;48.184;16.298;2023-06-14T05:48:39;99142.44;;;14.39;85.37
43503;BME280;29098;48.184;16.298;2023-06-14T05:51:05;99157.38;;;14.66;84.78
43503;BME280;29098;48.184;16.298;2023-06-14T05:53:33;99125.03;;;14.50;83.08
43503;BME280;29098;48.184;16.298;2023-06-14T05:55:59;99145.94;;;14.72;81.49
43503;BME280;29098;48.184;16.298;2023-06-14T05:58:24;99179.41;;;15.05;80.00
43503;BME280;29098;48.184;16.298;2023-06-14T06:00:50;99160.41;;;15.09;79.21
43503;BME280;29098;48.184;16.298;2023-06-14T06:03:16;99140.25;;;15.01;78.35
43503;BME280;29098;48.184;16.298;2023-06-14T06:05:41;99136.94;;;15.05;75.01
43503;BME280;29098;48.184;16.298;2023-06-14T06:08:07;99143.19;;;15.18;73.67
43503;BME280;29098;48.184;16.298;2023-06-14T06:10:32;99182.09;;;15.31;71.88
43503;BME280;29098;48.184;16.298;2023-06-14T06:12:57;99174.66;;;15.40;71.98
43503;BME280;29098;48.184;16.298;2023-06-14T06:15:23;99182.38;;;15.48;70.32
43503;BME280;29098;48.184;16.298;2023-06-14T06:17:48;99164.84;;;15.40;69.47
43503;BME280;29098;48.184;16.298;2023-06-14T06:20:14;99167.38;;;15.54;70.42
43503;BME280;29098;48.184;16.298;2023-06-14T06:22:40;99142.69;;;15.53;68.37
43503;BME280;29098;48.184;16.298;2023-06-14T06:25:05;99191.84;;;15.63;69.76
43503;BME280;29098;48.184;16.298;2023-06-14T06:27:31;99152.28;;;15.73;70.07
43503;BME280;29098;48.184;16.298;2023-06-14T06:29:57;99179.53;;;15.68;70.33
43503;BME280;29098;48.184;16.298;2023-06-14T06:32:22;99184.13;;;15.80;69.61
43503;BME280;29098;48.184;16.298;2023-06-14T06:34:48;99140.03;;;15.72;69.64
43503;BME280;29098;48.184;16.298;2023-06-14T06:37:13;99203.88;;;16.09;69.66
43503;BME280;29098;48.184;16.298;2023-06-14T06:39:39;99174.56;;;15.97;71.24
43503;BME280;29098;48.184;16.298;2023-06-14T06:42:05;99178.34;;;15.83;70.10
43503;BME280;29098;48.184;16.298;2023-06-14T06:44:31;99178.16;;;15.84;69.79
43503;BME280;29098;48.184;16.298;2023-06-14T06:46:57;99188.66;;;15.98;69.29
43503;BME280;29098;48.184;16.298;2023-06-14T06:49:23;99157.09;;;15.83;69.22
43503;BME280;29098;48.184;16.298;2023-06-14T06:52:17;99197.22;;;16.19;69.11
43503;BME280;29098;48.184;16.298;2023-06-14T06:54:43;99166.75;;;16.02;69.11
43503;BME280;29098;48.184;16.298;2023-06-14T06:57:08;99173.28;;;16.19;67.66
43503;BME280;29098;48.184;16.298;2023-06-14T06:59:34;99184.22;;;16.10;68.43
43503;BME280;29098;48.184;16.298;2023-06-14T07:02:00;99205.28;;;16.30;66.73
43503;BME280;29098;48.184;16.298;2023-06-14T07:04:25;99179.34;;;16.26;67.37
43503;BME280;29098;48.184;16.298;2023-06-14T07:06:51;99201.00;;;16.48;67.30
43503;BME280;29098;48.184;16.298;2023-06-14T07:09:16;99207.38;;;16.59;68.22
43503;BME280;29098;48.184;16.298;2023-06-14T07:11:43;99202.19;;;16.64;67.13
43503;BME280;29098;48.184;16.298;2023-06-14T07:14:09;99171.72;;;16.48;65.55
43503;BME280;29098;48.184;16.298;2023-06-14T07:16:34;99193.50;;;16.57;65.80
43503;BME280;29098;48.184;16.298;2023-06-14T07:19:02;99226.97;;;16.95;64.77
43503;BME280;29098;48.184;16.298;2023-06-14T07:21:27;99213.78;;;17.01;62.72
43503;BME280;29098;48.184;16.298;2023-06-14T07:23:53;99211.09;;;16.89;64.01
43503;BME280;29098;48.184;16.298;2023-06-14T07:26:19;99209.84;;;16.91;65.51
43503;BME280;29098;48.184;16.298;2023-06-14T07:28:46;99202.06;;;16.90;64.77
43503;BME280;29098;48.184;16.298;2023-06-14T07:31:12;99205.03;;;16.81;63.54
43503;BME280;29098;48.184;16.298;2023-06-14T07:33:40;99198.91;;;16.81;62.86
43503;BME280;29098;48.184;16.298;2023-06-14T07:36:06;99194.41;;;16.81;61.13
43503;BME280;29098;48.184;16.298;2023-06-14T07:38:32;99201.09;;;17.03;63.85
43503;BME280;29098;48.184;16.298;2023-06-14T07:40:57;99214.19;;;17.04;62.01
43503;BME280;29098;48.184;16.298;2023-06-14T07:43:22;99173.34;;;16.92;62.56
43503;BME280;29098;48.184;16.298;2023-06-14T07:45:48;99188.34;;;17.05;63.26
43503;BME280;29098;48.184;16.298;2023-06-14T07:48:13;99189.06;;;17.12;63.25
43503;BME280;29098;48.184;16.298;2023-06-14T07:50:39;99188.84;;;17.25;63.13
43503;BME280;29098;48.184;16.298;2023-06-14T07:53:04;99195.25;;;17.48;62.65
43503;BME280;29098;48.184;16.298;2023-06-14T07:55:30;99182.28;;;17.52;62.14
43503;BME280;29098;48.184;16.298;2023-06-14T07:57:57;99184.34;;;17.74;61.79
43503;BME280;29098;48.184;16.298;2023-06-14T08:00:23;99215.84;;;18.01;62.38
43503;BME280;29098;48.184;16.298;2023-06-14T08:02:49;99221.19;;;18.01;63.20
43503;BME280;29098;48.184;16.298;2023-06-14T08:05:15;99232.13;;;18.11;59.27
43503;BME280;29098;48.184;16.298;2023-06-14T08:07:41;99219.56;;;18.24;59.75
43503;BME280;29098;48.184;16.298;2023-06-14T08:10:08;99199.50;;;18.21;60.75
43503;BME280;29098;48.184;16.298;2023-06-14T08:12:34;99174.22;;;18.12;58.38
43503;BME280;29098;48.184;16.298;2023-06-14T08:15:00;99202.75;;;18.23;57.43
43503;BME280;29098;48.184;16.298;2023-06-14T08:17:25;99224.63;;;18.37;58.15
43503;BME280;29098;48.184;16.298;2023-06-14T08:19:51;99176.59;;;18.37;59.13
43503;BME280;29098;48.184;16.298;2023-06-14T08:22:17;99213.09;;;18.60;60.34
43503;BME280;29098;48.184;16.298;2023-06-14T08:24:43;99225.78;;;18.70;56.79
43503;BME280;29098;48.184;16.298;2023-06-14T08:27:09;99203.38;;;18.71;57.49
43503;BME280;29098;48.184;16.298;2023-06-14T08:29:35;99206.09;;;18.59;56.22
43503;BME280;29098;48.184;16.298;2023-06-14T08:32:00;99209.38;;;18.79;56.71
43503;BME280;29098;48.184;16.298;2023-06-14T08:34:27;99210.09;;;18.74;56.09
43503;BME280;29098;48.184;16.298;2023-06-14T08:36:52;99247.09;;;18.82;56.85
43503;BME280;29098;48.184;16.298;2023-06-14T08:39:18;99211.94;;;18.56;56.80
43503;BME280;29098;48.184;16.298;2023-06-14T08:41:46;99213.66;;;18.62;57.55
43503;BME280;29098;48.184;16.298;2023-06-14T08:44:12;99221.66;;;18.62;56.21
43503;BME280;29098;48.184;16.298;2023-06-14T08:46:37;99225.28;;;18.56;55.30
43503;BME280;29098;48.184;16.298;2023-06-14T08:49:03;99211.31;;;18.66;56.53
43503;BME280;29098;48.184;16.298;2023-06-14T08:51:31;99214.72;;;18.61;58.34
43503;BME280;29098;48.184;16.298;2023-06-14T08:54:02;99204.25;;;18.60;56.58
43503;BME280;29098;48.184;16.298;2023-06-14T08:56:30;99247.25;;;18.75;57.86
43503;BME280;29098;48.184;16.298;2023-06-14T08:58:57;99218.59;;;18.71;57.08
43503;BME280;29098;48.184;16.298;2023-06-14T09:01:26;99218.28;;;18.67;57.67
43503;BME280;29098;48.184;16.298;2023-06-14T09:03:52;99210.38;;;18.72;55.43
43503;BME280;29098;48.184;16.298;2023-06-14T09:06:20;99227.53;;;18.76;55.51
43503;BME280;29098;48.184;16.298;2023-06-14T09:08:48;99222.69;;;18.90;56.56
43503;BME280;29098;48.184;16.298;2023-06-14T09:11:15;99258.00;;;19.22;55.65
43503;BME280;29098;48.184;16.298;2023-06-14T09:13:41;99232.47;;;19.14;56.32
43503;BME280;29098;48.184;16.298;2023-06-14T09:16:08;99223.66;;;19.13;56.85
43503;BME280;29098;48.184;16.298;2023-06-14T09:18:38;99259.88;;;19.38;55.16
43503;BME280;29098;48.184;16.298;2023-06-14T09:21:06;99232.66;;;19.24;55.48
43503;BME280;29098;48.184;16.298;2023-06-14T09:23:36;99206.41;;;19.04;52.78
43503;BME280;29098;48.184;16.298;2023-06-14T09:26:06;99225.66;;;19.06;52.58
43503;BME280;29098;48.184;16.298;2023-06-14T09:28:32;99232.47;;;19.14;54.25
43503;BME280;29098;48.184;16.298;2023-06-14T09:30:57;99214.19;;;19.23;55.19
43503;BME280;29098;48.184;16.298;2023-06-14T09:33:23;99211.44;;;19.52;55.98
43503;BME280;29098;48.184;16.298;2023-06-14T09:35:51;99212.25;;;19.52;55.39
43503;BME280;29098;48.184;16.298;2023-06-14T09:38:20;99225.84;;;19.68;55.64
43503;BME280;29098;48.184;16.298;2023-06-14T09:40:46;99215.97;;;19.68;53.64
43503;BME280;29098;48.184;16.298;2023-06-14T09:43:11;99248.66;;;19.93;53.48
43503;BME280;29098;48.184;16.298;2023-06-14T09:45:38;99237.00;;;19.82;51.80
43503;BME280;29098;48.184;16.298;2023-06-14T09:48:11;99210.88;;;19.89;51.42
43503;BME280;29098;48.184;16.298;2023-06-14T09:50:36;99213.94;;;20.15;49.80
43503;BME280;29098;48.184;16.298;2023-06-14T09:53:11;99195.34;;;19.86;48.80
43503;BME280;29098;48.184;16.298;2023-06-14T09:55:37;99188.91;;;19.65;48.87
43503;BME280;29098;48.184;16.298;2023-06-14T09:58:06;99214.22;;;19.96;51.49
43503;BME280;29098;48.184;16.298;2023-06-14T10:00:32;99217.09;;;20.12;49.82
43503;BME280;29098;48.184;16.298;2023-06-14T10:03:03;99220.28;;;20.09;49.66
43503;BME280;29098;48.184;16.298;2023-06-14T10:05:29;99215.72;;;20.09;50.33
43503;BME280;29098;48.184;16.298;2023-06-14T10:08:04;99211.72;;;20.07;51.96
43503;BME280;29098;48.184;16.298;2023-06-14T10:10:33;99239.09;;;20.14;51.84
43503;BME280;29098;48.184;16.298;2023-06-14T10:12:58;99212.19;;;20.04;51.93
43503;BME280;29098;48.184;16.298;2023-06-14T10:15:38;99200.38;;;20.00;52.23
43503;BME280;29098;48.184;16.298;2023-06-14T10:18:28;99224.03;;;20.30;51.49
43503;BME280;29098;48.184;16.298;2023-06-14T10:23:41;99184.94;;;20.07;50.30
43503;BME280;29098;48.184;16.298;2023-06-14T10:26:08;99231.44;;;20.45;48.64
43503;BME280;29098;48.184;16.298;2023-06-14T10:28:37;99198.31;;;20.07;47.85
43503;BME280;29098;48.184;16.298;2023-06-14T10:31:10;99212.81;;;20.11;48.15
43503;BME280;29098;48.184;16.298;2023-06-14T10:33:40;99188.84;;;19.99;48.32
43503;BME280;29098;48.184;16.298;2023-06-14T10:36:24;99208.91;;;20.19;46.17
43503;BME280;29098;48.184;16.298;2023-06-14T10:39:03;99192.44;;;19.88;48.24
43503;BME280;29098;48.184;16.298;2023-06-14T10:41:30;99190.16;;;19.96;50.29
43503;BME280;29098;48.184;16.298;2023-06-14T10:46:41;99169.56;;;19.97;48.75
43503;BME280;29098;48.184;16.298;2023-06-14T10:49:11;99181.41;;;20.23;49.96
43503;BME280;29098;48.184;16.298;2023-06-14T10:51:42;99160.44;;;20.15;49.37
43503;BME280;29098;48.184;16.298;2023-06-14T10:54:16;99206.66;;;20.33;49.99
43503;BME280;29098;48.184;16.298;2023-06-14T10:56:49;99189.34;;;20.18;50.84
43503;BME280;29098;48.184;16.298;2023-06-14T10:59:18;99191.84;;;20.25;49.55
43503;BME280;29098;48.184;16.298;2023-06-14T11:04:47;99214.25;;;20.19;49.78
43503;BME280;29098;48.184;16.298;2023-06-14T11:10:09;99214.25;;;20.19;49.00
43503;BME280;29098;48.184;16.298;2023-06-14T11:12:36;99211.28;;;20.15;49.83
43503;BME280;29098;48.184;16.298;2023-06-14T11:15:05;99170.88;;;19.94;50.04
43503;BME280;29098;48.184;16.298;2023-06-14T11:17:32;99170.84;;;20.17;50.22
43503;BME280;29098;48.184;16.298;2023-06-14T11:20:11;99204.41;;;20.74;48.04
43503;BME280;29098;48.184;16.298;2023-06-14T11:22:45;99186.13;;;20.66;46.94
43503;BME280;29098;48.184;16.298;2023-06-14T11:25:14;99176.16;;;20.84;47.67
43503;BME280;29098;48.184;16.298;2023-06-14T11:27:43;99181.69;;;21.04;47.47
43503;BME280;29098;48.184;16.298;2023-06-14T11:30:09;99177.72;;;21.50;46.51
43503;BME280;29098;48.184;16.298;2023-06-14T11:32:37;99179.91;;;21.58;46.39
43503;BME280;29098;48.184;16.298;2023-06-14T11:35:03;99190.00;;;21.41;46.01
43503;BME280;29098;48.184;16.298;2023-06-14T11:37:30;99179.94;;;21.20;45.99
43503;BME280;29098;48.184;16.298;2023-06-14T11:40:00;99183.41;;;21.16;46.16
43503;BME280;29098;48.184;16.298;2023-06-14T11:42:29;99165.56;;;20.99;42.71
43503;BME280;29098;48.184;16.298;2023-06-14T11:44:55;99200.38;;;21.32;43.67
43503;BME280;29098;48.184;16.298;2023-06-14T11:47:21;99141.75;;;21.03;44.40
43503;BME280;29098;48.184;16.298;2023-06-14T11:49:47;99171.47;;;21.01;44.92
43503;BME280;29098;48.184;16.298;2023-06-14T11:52:13;99182.25;;;21.06;46.01
43503;BME280;29098;48.184;16.298;2023-06-14T11:54:39;99164.22;;;20.97;46.17
43503;BME280;29098;48.184;16.298;2023-06-14T11:57:09;99145.47;;;20.69;45.63
43503;BME280;29098;48.184;16.298;2023-06-14T11:59:39;99191.41;;;20.83;46.90
43503;BME280;29098;48.184;16.298;2023-06-14T12:02:06;99172.69;;;20.61;46.56
43503;BME280;29098;48.184;16.298;2023-06-14T12:04:31;99190.41;;;20.67;46.99
43503;BME280;29098;48.184;16.298;2023-06-14T12:06:57;99172.88;;;20.54;47.33
43503;BME280;29098;48.184;16.298;2023-06-14T12:09:23;99187.63;;;20.57;48.66
43503;BME280;29098;48.184;16.298;2023-06-14T12:11:59;99174.69;;;20.48;47.37
43503;BME280;29098;48.184;16.298;2023-06-14T12:14:30;99165.50;;;20.39;47.28
43503;BME280;29098;48.184;16.298;2023-06-14T12:17:07;99171.84;;;20.33;48.78
43503;BME280;29098;48.184;16.298;2023-06-14T12:19:32;99156.00;;;20.26;49.76
43503;BME280;29098;48.184;16.298;2023-06-14T12:22:01;99123.28;;;20.19;49.27
43503;BME280;29098;48.184;16.298;2023-06-14T12:24:30;99167.03;;;20.30;47.87
43503;BME280;29098;48.184;16.298;2023-06-14T12:27:00;99127.91;;;20.29;48.42
43503;BME280;29098;48.184;16.298;2023-06-14T12:29:28;99200.47;;;20.55;49.17
43503;BME280;29098;48.184;16.298;2023-06-14T12:31:53;99155.66;;;20.45;49.36
43503;BME280;29098;48.184;16.298;2023-06-14T12:34:21;99165.50;;;20.39;49.07
43503;BME280;29098;48.184;16.298;2023-06-14T12:36:47;99152.16;;;20.44;49.32
43503;BME280;29098;48.184;16.298;2023-06-14T12:39:12;99145.34;;;20.31;49.44
43503;BME280;29098;48.184;16.298;2023-06-14T12:41:38;99156.41;;;20.40;47.40
43503;BME280;29098;48.184;16.298;2023-06-14T12:44:06;99191.88;;;20.52;48.45
43503;BME280;29098;48.184;16.298;2023-06-14T12:46:32;99190.75;;;20.48;48.62
43503;BME280;29098;48.184;16.298;2023-06-14T12:48:57;99177.28;;;20.38;48.54
43503;BME280;29098;48.184;16.298;2023-06-14T12:51:22;99145.19;;;20.43;50.39
43503;BME280;29098;48.184;16.298;2023-06-14T12:53:49;99128.63;;;20.74;48.63
43503;BME280;29098;48.184;16.298;2023-06-14T12:56:18;99142.16;;;21.22;47.41
43503;BME280;29098;48.184;16.298;2023-06-14T12:58:43;99157.25;;;21.33;44.98
43503;BME280;29098;48.184;16.298;2023-06-14T13:01:09;99182.72;;;21.69;47.24
43503;BME280;29098;48.184;16.298;2023-06-14T13:03:35;99154.28;;;21.73;45.67
43503;BME280;29098;48.184;16.298;2023-06-14T13:06:01;99164.09;;;22.05;44.19